• Join FlightAware (Why Join?)
  • Login
  • US Flag GB Flag 
21:07 EDT


 

Airport Tracker/Info


-or-


 

Live Flight TrackerFlight Track Log ✈ GJS3649 ✈ 10-Jul-2013 ✈ KTUL - KORD

Flight Track Log - Related Links

Times and Time Zones

All times are in EDT time to prevent confusion due to time zone crossing. See the GJS3649 flight status page for this flight to view local times or setup timezone preferences in your user account.

Time Position Orientation Groundspeed Altitude Reporting Facility
EDT Latitude Longitude Course Direction KTS MPH feet Rate Location/Type
07:12 36.1886 -95.8850 321° Northwest 151 174 1,200  Level Kansas City Center
07:13 36.1569 -95.8814 175° South 161 185 2,800 2,160 Climbing Kansas City Center
07:13 36.1119 -95.8717 170° South 203 234 4,500 1,980 Climbing Kansas City Center
07:15 36.0792 -95.9300 235° Southwest 249 287 6,600 2,100 Climbing Kansas City Center
07:16 36.5383 -96.2586 317° Northwest  Level FlightAware Approximate
07:16 36.0889 -96.0194 278° West 274 315 9,000  Level Kansas City Center
07:17 36.6242 -96.3575 321° Northwest  Level FlightAware Approximate
07:17 36.1581 -96.0861 322° Northwest 290 334 11,000  Level Kansas City Center
07:18 36.2339 -96.1547 324° Northwest 317 365 12,500 1,740 Climbing Kansas City Center
07:19 36.3167 -96.2319 323° Northwest 345 397 14,600 2,040 Climbing Kansas City Center
07:20 36.4003 -96.3089 323° Northwest 360 414 16,700 1,980 Climbing Kansas City Center
07:21 36.4864 -96.3867 324° Northwest 374 430 18,700 1,980 Climbing Kansas City Center
07:22 36.5833 -96.4339 339° North 387 445 20,700 1,800 Climbing Kansas City Center
07:23 36.6756 -96.3608 32° Northeast 400 460 22,400 1,620 Climbing Kansas City Center
07:24 36.7636 -96.2711 39° Northeast 405 466 24,100 1,620 Climbing Kansas City Center
07:25 36.8503 -96.1797 40° Northeast 405 466 25,700 1,380 Climbing Kansas City Center
07:26 36.9392 -96.0897 39° Northeast 407 468 26,900 1,140 Climbing Kansas City Center
07:27 37.0314 -95.9944 40° Northeast 417 480 28,000 1,080 Climbing Kansas City Center
07:28 37.1253 -95.8969 40° Northeast 428 493 29,100 1,080 Climbing Kansas City Center
07:29 37.2194 -95.8011 39° Northeast 431 496 30,200 900 Climbing Kansas City Center
07:30 37.3331 -95.6833 39° Northeast 434 499 31,000 360 Climbing Kansas City Center
07:31 37.4300 -95.5808 40° Northeast 442 509 31,000  Level Kansas City Center
07:32 37.5292 -95.4769 40° Northeast 455 524 31,000  Level Kansas City Center
07:33 37.6297 -95.3708 40° Northeast 465 535 31,000  Level Kansas City Center
07:34 37.7319 -95.2625 40° Northeast 473 544 31,000  Level Kansas City Center
07:35 37.8322 -95.1550 40° Northeast 474 545 31,000 240 Level Kansas City Center
07:36 37.9236 -95.0553 41° Northeast 471 542 31,600 1,320 Climbing Kansas City Center
07:37 38.0336 -94.9397 40° Northeast 464 534 33,700 1,620 Climbing Kansas City Center
07:38 38.1247 -94.8397 41° Northeast 457 526 35,000 1,080 Climbing Kansas City Center
07:39 38.2139 -94.7450 40° Northeast 445 512 36,000 780 Climbing Kansas City Center
07:40 38.3225 -94.6272 40° Northeast 454 522 36,600 480 Climbing Kansas City Center
07:41 38.4164 -94.5244 41° Northeast 463 533 37,000 180 Climbing Kansas City Center
07:42 38.5106 -94.4217 40° Northeast 466 536 37,000  Level Kansas City Center
07:43 38.6208 -94.3014 40° Northeast 468 539 37,000  Level Kansas City Center
07:44 38.7156 -94.1978 40° Northeast 468 539 37,000  Level Kansas City Center
07:45 38.8089 -94.0956 40° Northeast 464 534 37,000  Level Kansas City Center
07:46 38.9172 -93.9747 41° Northeast 464 534 37,000  Level Kansas City Center
07:47 39.0108 -93.8706 41° Northeast 466 536 37,000  Level Kansas City Center
07:48 39.1053 -93.7664 41° Northeast 466 536 37,000  Level Kansas City Center
07:49 39.2144 -93.6444 41° Northeast 466 536 37,000  Level Kansas City Center
07:50 39.3169 -93.5303 41° Northeast 469 540 37,000  Level Kansas City Center
07:51 39.4144 -93.4211 41° Northeast 469 540 37,000  Level Kansas City Center
07:52 39.5119 -93.3108 41° Northeast 469 540 37,000  Level Kansas City Center
07:53 39.6092 -93.1981 42° Northeast 471 542 37,000  Level Kansas City Center
07:54 39.7083 -93.0864 41° Northeast 474 545 37,000  Level Kansas City Center
07:55 39.8056 -92.9683 43° Northeast 479 551 37,000  Level Kansas City Center
07:56 39.8783 -92.8244 57° Northeast 485 558 37,000  Level Kansas City Center
07:57 39.9500 -92.6753 58° Northeast 490 564 37,000  Level Kansas City Center
07:58 40.0350 -92.4969 58° Northeast 492 566 37,000  Level Kansas City Center
07:59 40.1094 -92.3419 58° Northeast 491 565 37,000  Level Kansas City Center
08:00 40.1775 -92.2000 58° Northeast 496 571 37,000  Level Kansas City Center
08:01 40.2492 -92.0500 58° Northeast 495 570 37,000 -540 Level Kansas City Center
08:02 40.3200 -91.8978 59° Northeast 497 572 36,000 -1,020 Descending Kansas City Center
08:03 40.3936 -91.7444 58° Northeast 500 575 35,000 -1,080 Descending Kansas City Center
08:04 40.4808 -91.5606 58° Northeast 499 574 33,800 -1,020 Descending Kansas City Center
08:05 40.5531 -91.4036 59° Northeast 504 580 33,000 -420 Descending Kansas City Center
08:07 40.6097 -91.2403 65° Northeast 518 596 33,000  Level Kansas City Center
08:08 40.6700 -91.0664 65° Northeast 520 598 33,000  Level Kansas City Center
08:09 40.7300 -90.8889 66° East 526 605 33,000  Level Kansas City Center
08:10 40.7911 -90.7111 66° East 530 610 33,000  Level Kansas City Center
08:11 40.8500 -90.5342 66° East 527 606 33,000 -420 Level Kansas City Center
08:12 40.9094 -90.3564 66° East 526 605 32,200 -1,620 Descending Kansas City Center
08:13 40.9922 -90.1047 66° East 511 588 29,200 -1,980 Descending Chicago Center
08:14 41.0436 -89.9497 66° East 478 550 27,500 -1,560 Descending Chicago Center
08:15 41.0944 -89.7922 67° East 466 536 26,000 -1,620 Descending Chicago Center
08:16 41.1522 -89.6158 66° East 445 512 24,300 -1,560 Descending Chicago Center
08:17 41.2067 -89.4783 62° Northeast 428 493 22,900 -1,380 Descending Chicago Center
08:18 41.2619 -89.3414 62° Northeast 420 483 21,500 -1,440 Descending Chicago Center
08:19 41.3153 -89.2083 62° Northeast 410 472 20,000 -1,500 Descending Chicago Center
08:20 41.3622 -89.0836 63° Northeast 396 456 18,500 -1,800 Descending Chicago Center
08:21 41.4142 -88.9572 61° Northeast 390 449 16,400 -2,400 Descending Chicago Center
08:22 41.4731 -88.8083 62° Northeast 383 441 13,600 -2,040 Descending Chicago Center
08:23 41.5194 -88.6886 63° Northeast 367 422 12,200 -1,260 Descending Chicago Center
08:24 41.5653 -88.5733 62° Northeast 354 407 11,100 -780 Descending Chicago Center
08:25 41.6125 -88.4622 60° Northeast 346 398 10,600 -540 Descending Chicago Center
08:26 41.6703 -88.3611 53° Northeast 341 392 10,000 -300 Descending Chicago Center
08:27 41.7292 -88.2617 52° Northeast 339 390 10,000  Level Chicago Center
08:28 41.7981 -88.1425 52° Northeast 337 388 10,000 -300 Level Chicago Center
08:29 41.8275 -88.0281 71° East 322 371 9,500 -780 Descending Chicago Center
08:31 41.8561 -87.9147 71° East 321 369 8,500 -1,020 Descending Chicago Center
08:32 41.8822 -87.8047 72° East 313 360 7,500 -840 Descending Chicago Center
08:33 41.8831 -87.6897 89° East 311 358 6,800 -840 Descending Chicago Center
08:34 41.8831 -87.5769 90° East 305 351 5,800 -900 Descending Chicago Center
08:35 41.8828 -87.4667 90° East 299 344 5,000 -420 Descending Chicago Center
08:36 41.8961 -87.3397 82° East 293 337 5,000  Level Chicago Center
08:37 41.9589 -87.3553 350° North 265 305 5,000  Level Chicago Center
08:38 41.9697 -87.4492 279° West 262 302 5,000  Level Chicago Center
08:39 41.9686 -87.5264 269° West 231 266 5,000 -180 Level Chicago Center
08:40 41.9681 -87.6017 269° West 208 239 4,700 -840 Descending Chicago Center
08:41 41.9694 -87.6961 271° West 210 242 3,300 -1,200 Descending Chicago Center
08:42 41.9706 -87.7672 271° West 205 236 2,300 -900 Descending Chicago Center
08:43 41.9694 -87.8319 269° West 193 222 1,500 -540 Descending Chicago Center
08:44 41.9703 -87.8856 271° West 184 212 1,200 -300 Descending Chicago Center